Time;durP1;ratioP1;P1;durP2;ratioP2;P2;SDS_P1;SDS_P2;PMS_P1;PMS_P2;Temp;Humidity;BMP_temperature;BMP_pressure;BME280_temperature;BME280_humidity;BME280_pressure;Samples;Min_cycle;Max_cycle;Signal;HPM_P1;HPM_P2
2022/01/16 00:00:20;;;;;;;50.80;23.20;;;1.70;99.90;;;;;;5001178;28;20100;-87
2022/01/16 00:05:26;;;;;;;57.05;26.58;;;1.70;99.90;;;;;;5008794;28;20061;-86
2022/01/16 00:07:52;;;;;;;47.95;24.48;;;1.50;99.90;;;;;;5008899;28;20054;-87
2022/01/16 00:10:18;;;;;;;56.90;26.02;;;1.50;99.90;;;;;;5001962;28;20042;-84
2022/01/16 00:12:49;;;;;;;56.28;25.58;;;1.60;99.90;;;;;;5024201;28;20119;-89
2022/01/16 00:15:20;;;;;;;48.95;25.48;;;1.50;99.90;;;;;;5001394;28;20037;-89
2022/01/16 00:18:07;;;;;;;56.50;25.77;;;1.40;99.90;;;;;;5007059;28;20135;-85
2022/01/16 00:20:33;;;;;;;56.40;26.15;;;1.60;99.90;;;;;;5024677;28;20060;-88
2022/01/16 00:22:59;;;;;;;55.35;24.95;;;1.50;99.90;;;;;;5001666;28;20038;-83
2022/01/16 00:25:25;;;;;;;50.80;24.20;;;1.50;99.90;;;;;;4993393;28;20046;-87
2022/01/16 00:27:52;;;;;;;63.28;27.27;;;1.60;99.90;;;;;;5003407;28;20046;-84
2022/01/16 00:30:18;;;;;;;56.92;27.05;;;1.50;99.90;;;;;;5002873;28;20064;-81
2022/01/16 00:32:45;;;;;;;59.22;27.60;;;2.40;99.90;;;;;;5005980;28;20042;-85
2022/01/16 00:35:12;;;;;;;59.38;26.45;;;1.40;99.90;;;;;;4989351;28;20050;-86
2022/01/16 00:37:39;;;;;;;66.55;29.02;;;1.40;99.90;;;;;;4990634;28;20034;-82
2022/01/16 00:40:06;;;;;;;68.38;30.00;;;1.40;99.90;;;;;;5007970;28;20072;-83
2022/01/16 00:42:31;;;;;;;61.95;28.40;;;1.50;99.90;;;;;;5014740;28;20121;-88
2022/01/16 00:44:57;;;;;;;72.25;31.85;;;1.40;99.90;;;;;;5010350;28;20133;-83
2022/01/16 00:47:22;;;;;;;72.95;31.38;;;1.40;99.90;;;;;;4999410;28;20502;-84
2022/01/16 00:49:48;;;;;;;65.97;29.40;;;1.50;99.90;;;;;;4999708;28;20057;-85
2022/01/16 00:52:13;;;;;;;61.53;28.55;;;1.80;99.90;;;;;;5002089;28;20050;-87
2022/01/16 00:54:39;;;;;;;76.10;33.90;;;1.50;99.90;;;;;;5008319;28;20038;-87
2022/01/16 00:57:05;;;;;;;72.32;32.08;;;1.40;99.90;;;;;;5010342;28;20124;-84
2022/01/16 00:59:31;;;;;;;74.10;32.10;;;1.40;99.90;;;;;;5000148;28;20038;-87
2022/01/16 01:01:57;;;;;;;69.45;30.83;;;1.20;99.90;;;;;;5003343;28;20412;-86
2022/01/16 01:04:22;;;;;;;63.30;29.08;;;1.40;99.90;;;;;;4982867;28;20076;-87
2022/01/16 01:06:50;;;;;;;78.22;33.75;;;1.10;99.90;;;;;;4985602;28;20042;-87
2022/01/16 01:09:16;;;;;;;77.70;35.60;;;1.90;99.90;;;;;;5008927;28;20054;-84
2022/01/16 01:11:45;;;;;;;75.30;33.30;;;2.70;99.90;;;;;;5003742;28;20060;-86
2022/01/16 01:14:20;;;;;;;72.47;33.20;;;3.20;99.90;;;;;;5001584;28;20530;-87
2022/01/16 01:16:51;;;;;;;65.47;31.65;;;1.40;99.90;;;;;;5005275;28;20256;-87
2022/01/16 01:19:19;;;;;;;69.93;32.38;;;1.40;99.90;;;;;;5003503;28;20785;-87
2022/01/16 01:21:45;;;;;;;69.45;32.33;;;1.20;99.90;;;;;;5003394;28;20062;-86
2022/01/16 01:24:10;;;;;;;69.32;33.50;;;2.30;99.90;;;;;;5000366;28;20057;-87
2022/01/16 01:26:45;;;;;;;68.32;32.85;;;1.40;99.90;;;;;;4985671;28;20038;-88
2022/01/16 01:29:15;;;;;;;72.50;33.25;;;1.40;99.90;;;;;;5004121;28;20057;-87
2022/01/16 01:31:41;;;;;;;66.90;31.80;;;1.40;99.90;;;;;;5005491;28;20505;-87
2022/01/16 01:34:07;;;;;;;68.70;33.13;;;3.80;99.90;;;;;;4992237;28;20127;-88
2022/01/16 01:36:33;;;;;;;68.40;30.58;;;3.50;99.90;;;;;;5004557;28;20037;-88
2022/01/16 01:38:58;;;;;;;68.32;31.83;;;1.40;99.90;;;;;;5003313;28;20509;-87
2022/01/16 01:41:26;;;;;;;73.32;31.08;;;1.40;99.90;;;;;;5002234;28;20129;-86
2022/01/16 01:52:18;;;;;;;68.75;32.55;;;1.50;99.90;;;;;;5003747;28;20407;-84
2022/01/16 01:54:43;;;;;;;69.70;32.35;;;1.60;99.90;;;;;;4991654;28;20050;-87
2022/01/16 01:57:10;;;;;;;76.85;34.20;;;1.60;99.90;;;;;;4993557;28;20573;-87
2022/01/16 01:59:39;;;;;;;76.13;32.53;;;1.60;99.90;;;;;;4998883;28;20133;-88
2022/01/16 02:02:06;;;;;;;74.80;33.33;;;1.60;99.90;;;;;;4998293;28;20092;-88
2022/01/16 02:04:31;;;;;;;70.13;31.60;;;1.60;99.90;;;;;;5002272;28;20121;-88
2022/01/16 02:06:57;;;;;;;79.25;35.50;;;1.60;99.90;;;;;;5002790;28;20133;-87
2022/01/16 02:09:23;;;;;;;74.88;34.40;;;3.60;99.90;;;;;;4999223;28;20057;-87
2022/01/16 02:11:53;;;;;;;73.45;32.58;;;1.60;99.90;;;;;;4998992;28;20043;-87
2022/01/16 02:28:38;;;;;;;78.90;32.72;;;3.20;99.90;;;;;;5026307;28;20498;-87
2022/01/16 02:36:31;;;;;;;85.47;34.63;;;1.70;99.90;;;;;;5002917;28;20046;-87
2022/01/16 02:39:06;;;;;;;88.00;33.22;;;1.60;99.90;;;;;;5005400;28;20046;-87
2022/01/16 02:41:32;;;;;;;84.70;34.80;;;1.70;99.90;;;;;;5003126;28;20485;-87
2022/01/16 02:43:58;;;;;;;79.07;34.75;;;1.70;99.90;;;;;;4988401;28;20125;-88
2022/01/16 02:48:49;;;;;;;85.80;33.63;;;1.50;99.90;;;;;;5004980;28;20088;-88
2022/01/16 02:51:20;;;;;;;89.80;34.38;;;1.60;99.90;;;;;;5002212;28;20050;-88
2022/01/16 02:53:47;;;;;;;91.75;34.05;;;1.50;99.90;;;;;;5002330;28;20494;-87
2022/01/16 02:56:13;;;;;;;78.60;31.77;;;1.50;99.90;;;;;;4985910;28;20069;-87
2022/01/16 02:58:40;;;;;;;83.72;33.55;;;1.60;99.90;;;;;;4988454;28;20034;-84
2022/01/16 03:01:07;;;;;;;86.28;34.22;;;1.60;99.90;;;;;;5005099;28;20375;-86
2022/01/16 03:03:33;;;;;;;80.18;32.35;;;1.60;99.90;;;;;;5001855;28;20172;-88
2022/01/16 03:05:58;;;;;;;79.80;31.67;;;1.70;99.90;;;;;;5002786;28;20148;-85
2022/01/16 03:08:24;;;;;;;85.13;33.80;;;1.70;99.90;;;;;;4988234;28;20582;-86
2022/01/16 03:13:31;;;;;;;81.00;33.15;;;1.70;99.90;;;;;;5001963;28;20046;-86
2022/01/16 03:15:57;;;;;;;78.40;33.00;;;3.60;99.90;;;;;;5007807;28;20048;-84
2022/01/16 03:23:33;;;;;;;81.15;32.67;;;1.40;99.90;;;;;;5002375;28;20389;-86
2022/01/16 03:26:00;;;;;;;81.90;32.28;;;1.70;99.90;;;;;;4998183;28;20050;-84
2022/01/16 03:28:29;;;;;;;84.55;32.65;;;2.20;99.90;;;;;;5002520;28;20137;-86
2022/01/16 03:30:55;;;;;;;92.53;34.85;;;1.70;99.90;;;;;;5011413;28;20175;-88
2022/01/16 03:33:21;;;;;;;90.05;33.90;;;1.90;99.90;;;;;;4998733;28;20128;-88
2022/01/16 03:35:48;;;;;;;93.47;35.55;;;2.00;99.90;;;;;;5003722;28;20096;-85
2022/01/16 03:38:14;;;;;;;92.95;35.53;;;1.80;99.90;;;;;;5008349;28;20129;-88
2022/01/16 03:40:40;;;;;;;81.90;34.28;;;1.60;99.90;;;;;;5000901;28;20190;-86
2022/01/16 03:43:14;;;;;;;93.53;34.10;;;1.70;99.90;;;;;;4997782;28;20045;-86
2022/01/16 03:45:46;;;;;;;93.00;37.00;;;1.70;99.90;;;;;;5023733;28;20049;-87
2022/01/16 03:48:13;;;;;;;104.53;35.85;;;1.70;99.90;;;;;;5002223;28;20491;-87
2022/01/16 03:50:38;;;;;;;113.60;39.55;;;2.90;99.90;;;;;;5004269;28;20088;-86
2022/01/16 03:53:05;;;;;;;96.72;35.35;;;1.70;99.90;;;;;;5002924;28;20479;-85
2022/01/16 03:55:31;;;;;;;110.32;40.08;;;1.80;99.90;;;;;;5000170;28;20065;-88
2022/01/16 03:57:57;;;;;;;106.30;38.05;;;1.60;99.90;;;;;;4997683;28;20058;-86
2022/01/16 04:00:23;;;;;;;110.50;38.80;;;1.80;99.90;;;;;;4999451;28;20042;-87
2022/01/16 04:02:49;;;;;;;106.03;36.95;;;1.40;99.90;;;;;;5000299;28;20597;-88
2022/01/16 04:05:14;;;;;;;101.00;36.55;;;1.80;99.90;;;;;;5002837;28;20129;-87
2022/01/16 04:07:40;;;;;;;102.97;37.17;;;1.90;99.90;;;;;;5000824;28;20061;-87
2022/01/16 04:10:08;;;;;;;123.65;38.70;;;1.90;99.90;;;;;;5003399;28;20395;-85
2022/01/16 04:12:37;;;;;;;103.13;37.35;;;1.90;99.90;;;;;;4999335;28;20054;-86
2022/01/16 04:17:28;;;;;;;126.53;39.55;;;1.90;99.90;;;;;;5000393;28;20048;-87
2022/01/16 04:19:54;;;;;;;108.43;37.47;;;1.90;99.90;;;;;;4993348;28;20041;-88
2022/01/16 04:22:20;;;;;;;104.43;37.90;;;1.90;99.90;;;;;;5001299;28;20042;-87
2022/01/16 04:24:46;;;;;;;103.45;36.65;;;2.00;99.90;;;;;;4993783;28;20042;-87
2022/01/16 04:27:13;;;;;;;105.30;35.83;;;2.00;99.90;;;;;;4995083;28;20122;-87
2022/01/16 04:29:45;;;;;;;113.70;38.63;;;2.10;99.90;;;;;;4964157;28;1076306;-87
2022/01/16 04:32:11;;;;;;;105.40;37.40;;;1.90;99.90;;;;;;5011184;28;20041;-87
2022/01/16 04:34:36;;;;;;;105.82;35.47;;;2.00;99.90;;;;;;5008716;28;20464;-85
2022/01/16 04:37:03;;;;;;;103.40;36.53;;;2.00;99.90;;;;;;5001496;28;20133;-88
2022/01/16 04:39:33;;;;;;;117.93;41.75;;;2.10;99.90;;;;;;5001532;28;20052;-86
2022/01/16 04:44:44;;;;;;;106.50;37.53;;;2.00;99.90;;;;;;5009888;28;20061;-87
2022/01/16 04:47:10;;;;;;;114.03;39.83;;;2.20;99.90;;;;;;5010077;28;20390;-86
2022/01/16 04:49:35;;;;;;;133.20;41.33;;;2.20;99.90;;;;;;4998338;28;20189;-88
2022/01/16 04:52:01;;;;;;;117.57;40.97;;;3.70;99.90;;;;;;5003761;28;20523;-88
2022/01/16 04:54:27;;;;;;;106.47;39.83;;;3.10;99.90;;;;;;4988831;28;20042;-86
2022/01/16 04:56:53;;;;;;;119.78;39.03;;;4.30;99.90;;;;;;5005782;28;20061;-86
2022/01/16 04:59:19;;;;;;;123.28;41.53;;;0.90;99.90;;;;;;4987633;28;20054;-86
2022/01/16 05:01:45;;;;;;;123.07;41.22;;;2.30;99.90;;;;;;5024539;28;20046;-86
2022/01/16 05:04:11;;;;;;;128.88;40.83;;;2.20;99.90;;;;;;5015404;28;20545;-87
2022/01/16 05:06:37;;;;;;;115.47;41.80;;;2.30;99.90;;;;;;5002580;28;20440;-88
2022/01/16 05:09:04;;;;;;;127.65;41.63;;;2.40;99.90;;;;;;4999981;28;20042;-87
2022/01/16 05:11:30;;;;;;;126.68;40.88;;;2.30;99.90;;;;;;5005240;28;20118;-87
2022/01/16 05:16:36;;;;;;;129.10;43.78;;;2.80;99.90;;;;;;4996264;28;20478;-88
2022/01/16 05:19:13;;;;;;;136.75;43.28;;;2.30;99.90;;;;;;4982749;28;20089;-84
2022/01/16 05:21:40;;;;;;;147.10;45.58;;;0.70;99.90;;;;;;5000754;28;20073;-87
2022/01/16 05:24:11;;;;;;;134.82;44.17;;;2.30;99.90;;;;;;4998364;28;20046;-87
2022/01/16 05:26:40;;;;;;;124.20;39.70;;;2.70;99.90;;;;;;5000229;28;20096;-86
2022/01/16 05:29:05;;;;;;;127.60;40.45;;;2.50;99.90;;;;;;5005945;28;20564;-87
2022/01/16 05:31:31;;;;;;;136.35;40.42;;;2.40;99.90;;;;;;4990928;28;20046;-86
2022/01/16 05:33:57;;;;;;;147.23;41.95;;;2.80;99.90;;;;;;4987163;28;20042;-87
2022/01/16 05:36:23;;;;;;;165.80;44.72;;;2.50;99.90;;;;;;5007837;28;20046;-87
2022/01/16 05:38:49;;;;;;;138.52;44.88;;;2.90;99.90;;;;;;4997832;28;20034;-89
2022/01/16 05:41:15;;;;;;;147.98;45.33;;;2.50;99.90;;;;;;5000864;28;20062;-86
2022/01/16 05:43:40;;;;;;;146.23;42.88;;;2.50;99.90;;;;;;5001367;28;20081;-87
2022/01/16 05:46:06;;;;;;;139.98;43.50;;;2.40;99.90;;;;;;5002082;28;20038;-87
2022/01/16 05:48:32;;;;;;;144.60;43.33;;;2.30;99.90;;;;;;4993626;28;20048;-87
2022/01/16 05:50:57;;;;;;;147.57;43.50;;;3.30;99.90;;;;;;4987478;28;20037;-87
2022/01/16 05:53:23;;;;;;;129.40;40.65;;;2.50;99.90;;;;;;5003173;28;20157;-88
2022/01/16 05:55:49;;;;;;;140.02;43.45;;;2.60;99.90;;;;;;4999564;28;20052;-88
2022/01/16 05:58:15;;;;;;;150.60;46.22;;;2.60;99.90;;;;;;5002343;28;20046;-87
2022/01/16 06:00:41;;;;;;;138.68;43.40;;;2.60;99.90;;;;;;5022994;28;20034;-88
2022/01/16 06:03:09;;;;;;;135.15;42.85;;;2.60;99.90;;;;;;4998756;28;20083;-87
2022/01/16 06:05:34;;;;;;;135.30;42.95;;;2.60;99.90;;;;;;5002064;28;20054;-87
2022/01/16 06:08:06;;;;;;;141.05;46.17;;;3.30;99.90;;;;;;5002087;28;20045;-87
2022/01/16 06:10:32;;;;;;;118.93;41.38;;;2.70;99.90;;;;;;5001782;28;20046;-88
2022/01/16 06:12:58;;;;;;;134.65;41.28;;;2.60;99.90;;;;;;5002984;28;20057;-88
2022/01/16 06:15:23;;;;;;;125.50;40.45;;;2.80;99.90;;;;;;5000980;28;20038;-87
2022/01/16 06:17:50;;;;;;;124.65;43.08;;;2.80;99.90;;;;;;4999415;28;20391;-88
2022/01/16 06:20:18;;;;;;;137.20;43.05;;;2.80;99.90;;;;;;5004671;28;20042;-87
2022/01/16 06:22:44;;;;;;;145.10;44.88;;;2.80;99.90;;;;;;5017153;28;20041;-87
2022/01/16 06:25:11;;;;;;;146.30;45.70;;;2.70;99.90;;;;;;5005832;28;20038;-87
2022/01/16 06:27:37;;;;;;;137.02;45.40;;;2.90;99.90;;;;;;4996298;28;20546;-84
2022/01/16 06:30:06;;;;;;;137.10;44.13;;;2.80;99.90;;;;;;5002968;28;20148;-85
2022/01/16 06:32:32;;;;;;;139.30;44.78;;;3.00;99.90;;;;;;5006276;28;20053;-88
2022/01/16 06:34:58;;;;;;;154.43;47.47;;;2.80;99.90;;;;;;5001260;28;20046;-87
2022/01/16 06:37:23;;;;;;;127.10;44.80;;;3.00;99.90;;;;;;4996205;28;20046;-86
2022/01/16 06:39:49;;;;;;;131.77;45.45;;;3.00;99.90;;;;;;5002409;28;20054;-85
2022/01/16 06:42:15;;;;;;;146.65;46.65;;;2.40;99.90;;;;;;5001944;28;20057;-86
2022/01/16 06:44:41;;;;;;;150.35;47.75;;;3.00;99.90;;;;;;4999406;28;20128;-86
2022/01/16 06:47:07;;;;;;;141.95;45.47;;;3.10;99.90;;;;;;5002697;28;20057;-86
2022/01/16 06:49:32;;;;;;;139.88;44.35;;;3.10;99.90;;;;;;5004762;28;20432;-86
2022/01/16 06:51:58;;;;;;;141.68;47.00;;;3.10;99.90;;;;;;5004485;28;20053;-85
2022/01/16 06:54:23;;;;;;;138.65;46.83;;;3.00;99.90;;;;;;5002251;28;20058;-84
2022/01/16 06:56:49;;;;;;;137.80;46.45;;;3.10;99.90;;;;;;4997100;28;20398;-85
2022/01/16 06:59:15;;;;;;;142.88;46.88;;;3.10;99.90;;;;;;4985124;28;20046;-87
2022/01/16 07:01:40;;;;;;;142.30;47.85;;;3.20;99.90;;;;;;5002871;28;20077;-85
2022/01/16 07:04:06;;;;;;;118.63;42.78;;;3.20;99.90;;;;;;4982268;28;20042;-84
2022/01/16 07:06:31;;;;;;;142.82;49.15;;;3.20;99.90;;;;;;4989341;28;20505;-85
2022/01/16 07:08:57;;;;;;;129.52;46.22;;;3.70;99.90;;;;;;4998390;28;20045;-87
2022/01/16 07:11:23;;;;;;;149.80;49.47;;;3.30;99.90;;;;;;4999003;28;20114;-84
2022/01/16 07:13:50;;;;;;;124.50;46.17;;;3.20;99.90;;;;;;4998391;28;20046;-86
2022/01/16 07:16:15;;;;;;;132.65;46.13;;;3.70;99.90;;;;;;4997620;28;20209;-86
2022/01/16 07:18:41;;;;;;;135.05;46.03;;;5.40;99.90;;;;;;5000863;28;20081;-87
2022/01/16 07:21:13;;;;;;;137.00;48.00;;;4.80;99.90;;;;;;5000968;28;20496;-86
2022/01/16 07:23:41;;;;;;;136.18;47.17;;;2.50;99.90;;;;;;5009621;28;20050;-86
2022/01/16 07:26:07;;;;;;;134.38;47.05;;;4.70;99.90;;;;;;5001371;28;20039;-86
2022/01/16 07:28:32;;;;;;;112.75;42.30;;;4.30;99.90;;;;;;5011115;28;20049;-85
2022/01/16 07:30:59;;;;;;;140.77;48.85;;;;;;;;;;5012330;28;20048;-87
2022/01/16 07:33:25;;;;;;;136.68;48.72;;;;;;;;;;5012320;28;20050;-87
2022/01/16 07:35:51;;;;;;;132.35;47.92;;;3.50;99.90;;;;;;5005461;28;20049;-86
2022/01/16 07:38:17;;;;;;;113.75;44.70;;;;;;;;;;5005652;28;20394;-87
2022/01/16 07:40:43;;;;;;;118.45;46.35;;;3.60;99.90;;;;;;4995880;28;20052;-87
2022/01/16 07:43:08;;;;;;;124.47;46.97;;;3.40;99.90;;;;;;4992721;28;20039;-88
2022/01/16 07:45:34;;;;;;;100.38;40.40;;;4.90;99.90;;;;;;5009029;28;20045;-88
2022/01/16 07:48:00;;;;;;;111.28;44.83;;;5.20;99.90;;;;;;4997017;28;20465;-86
2022/01/16 07:50:26;;;;;;;118.38;44.53;;;3.00;99.90;;;;;;5001440;28;20043;-86
2022/01/16 07:52:52;;;;;;;99.97;42.63;;;2.40;99.90;;;;;;5009098;28;20049;-87
2022/01/16 07:55:22;;;;;;;105.43;44.25;;;;;;;;;;5001095;28;20042;-88
2022/01/16 07:57:49;;;;;;;96.07;42.58;;;3.80;99.90;;;;;;4992394;28;20042;-87
2022/01/16 08:00:14;;;;;;;91.07;41.80;;;3.50;99.90;;;;;;5007525;28;20077;-87
2022/01/16 08:02:40;;;;;;;96.07;42.67;;;3.90;99.90;;;;;;4990656;28;20030;-87
2022/01/16 08:05:06;;;;;;;100.78;43.45;;;4.10;99.90;;;;;;5004369;28;20128;-87
2022/01/16 08:07:32;;;;;;;98.95;42.00;;;3.90;99.90;;;;;;5004757;28;20112;-88
2022/01/16 08:09:57;;;;;;;99.43;43.38;;;6.80;99.90;;;;;;5009172;28;20410;-86
2022/01/16 08:12:25;;;;;;;100.50;42.78;;;5.70;99.90;;;;;;5006641;28;20045;-86
2022/01/16 08:14:50;;;;;;;106.82;41.38;;;5.20;99.90;;;;;;4998358;28;20046;-88
2022/01/16 08:17:16;;;;;;;95.43;43.22;;;5.60;99.90;;;;;;5011590;28;20528;-87
2022/01/16 08:19:42;;;;;;;90.43;40.80;;;5.40;99.90;;;;;;5003264;28;20057;-88
2022/01/16 08:22:10;;;;;;;95.07;40.53;;;;;;;;;;5004611;28;20045;-87
2022/01/16 08:24:39;;;;;;;96.40;40.97;;;;;;;;;;5012425;28;20046;-86
2022/01/16 08:27:05;;;;;;;96.57;41.38;;;4.10;99.90;;;;;;4993057;28;20328;-88
2022/01/16 08:29:31;;;;;;;100.40;41.70;;;;;;;;;;5006948;28;20058;-88
2022/01/16 08:31:57;;;;;;;86.50;39.00;;;;;;;;;;4990594;28;20046;-87
2022/01/16 08:34:23;;;;;;;96.65;40.03;;;4.10;99.90;;;;;;4991535;28;20042;-88
2022/01/16 08:36:49;;;;;;;96.50;42.38;;;5.60;99.90;;;;;;4991078;28;20379;-88
2022/01/16 08:39:15;;;;;;;89.80;40.53;;;3.40;99.90;;;;;;5010703;28;20088;-88
2022/01/16 08:41:41;;;;;;;92.47;40.22;;;6.50;99.90;;;;;;4987782;28;20563;-86
2022/01/16 08:44:07;;;;;;;85.70;39.15;;;4.10;99.90;;;;;;4994474;28;20052;-88
2022/01/16 08:46:33;;;;;;;96.65;40.83;;;2.50;99.90;;;;;;4993787;28;20045;-84
2022/01/16 08:48:59;;;;;;;90.55;39.80;;;3.30;99.90;;;;;;5008963;28;20033;-83
2022/01/16 08:51:25;;;;;;;83.85;39.85;;;3.30;99.90;;;;;;5010154;28;20035;-85
2022/01/16 08:53:54;;;;;;;67.35;33.20;;;3.90;99.90;;;;;;5005822;28;20053;-87
2022/01/16 08:56:20;;;;;;;78.90;39.25;;;4.30;99.90;;;;;;4997102;28;20052;-85
2022/01/16 08:58:46;;;;;;;77.70;38.65;;;3.80;99.90;;;;;;4989954;28;20041;-88
2022/01/16 09:01:11;;;;;;;76.57;38.03;;;3.50;99.90;;;;;;5006285;28;20557;-85
2022/01/16 09:03:38;;;;;;;73.57;38.55;;;5.50;99.90;;;;;;4989776;28;20168;-86
2022/01/16 09:06:06;;;;;;;67.78;33.50;;;3.90;99.90;;;;;;4353013;28;10002777;-85
2022/01/16 09:08:31;;;;;;;66.78;34.50;;;4.40;99.90;;;;;;5001906;28;20046;-82
2022/01/16 09:10:57;;;;;;;69.45;34.05;;;4.40;99.90;;;;;;4998783;28;20474;-82
2022/01/16 09:13:23;;;;;;;61.90;31.88;;;4.50;99.90;;;;;;4996533;28;20046;-85
2022/01/16 09:15:51;;;;;;;60.28;32.60;;;4.60;99.90;;;;;;4985420;28;20074;-88
2022/01/16 09:18:18;;;;;;;58.03;32.53;;;4.60;99.90;;;;;;5004168;28;20038;-88
2022/01/16 09:20:45;;;;;;;56.25;30.35;;;4.70;99.90;;;;;;4998580;28;20052;-87
2022/01/16 09:23:12;;;;;;;48.38;25.55;;;4.50;99.90;;;;;;4997091;28;20034;-89
2022/01/16 09:25:38;;;;;;;50.00;29.30;;;4.80;99.90;;;;;;4995035;28;20141;-87
2022/01/16 09:28:05;;;;;;;58.22;33.38;;;6.20;99.90;;;;;;5005004;28;20132;-87
2022/01/16 09:30:31;;;;;;;52.85;27.98;;;6.90;99.90;;;;;;5000051;28;20053;-87
2022/01/16 09:32:57;;;;;;;55.58;28.10;;;4.70;99.90;;;;;;5016350;28;20184;-87
2022/01/16 09:35:23;;;;;;;47.92;28.75;;;5.00;99.90;;;;;;4998333;28;20117;-87
2022/01/16 09:37:49;;;;;;;42.47;25.13;;;5.10;99.90;;;;;;5001407;28;20560;-88
2022/01/16 09:40:18;;;;;;;43.95;23.65;;;5.10;99.90;;;;;;5000476;28;20140;-86
2022/01/16 09:42:45;;;;;;;41.42;24.42;;;5.10;99.90;;;;;;4998833;28;20073;-83
2022/01/16 09:45:14;;;;;;;46.90;26.33;;;5.30;99.90;;;;;;4999425;28;20134;-87
2022/01/16 09:47:40;;;;;;;46.63;23.92;;;5.30;99.90;;;;;;5000571;28;20042;-86
2022/01/16 09:50:07;;;;;;;34.95;21.17;;;5.40;99.90;;;;;;4999895;28;20459;-87
2022/01/16 09:52:38;;;;;;;36.97;21.45;;;5.40;99.90;;;;;;5000098;28;20702;-87
2022/01/16 09:55:05;;;;;;;33.28;20.08;;;5.50;99.90;;;;;;4998810;28;20054;-87
2022/01/16 09:57:32;;;;;;;41.33;23.67;;;5.60;99.90;;;;;;5000458;28;20034;-84
2022/01/16 09:59:58;;;;;;;45.33;23.42;;;5.60;99.90;;;;;;4988137;28;20605;-87
2022/01/16 10:02:24;;;;;;;36.80;21.73;;;5.60;99.90;;;;;;5006326;28;20040;-85
2022/01/16 10:04:49;;;;;;;38.25;19.30;;;5.70;99.90;;;;;;5000196;28;20042;-83
2022/01/16 10:07:18;;;;;;;33.10;21.42;;;5.60;99.90;;;;;;4999648;28;20076;-87
2022/01/16 10:10:03;;;;;;;35.40;22.02;;;5.70;99.90;;;;;;5004151;28;20042;-89
2022/01/16 10:12:28;;;;;;;;;;;5.70;99.90;;;;;;5000311;28;20093;-86
2022/01/16 10:14:54;;;;;;;38.53;20.35;;;5.80;99.90;;;;;;4995571;28;20369;-82
2022/01/16 10:17:24;;;;;;;36.40;20.48;;;5.80;99.90;;;;;;4999654;28;20046;-85
2022/01/16 10:20:02;;;;;;;37.35;19.60;;;5.70;99.90;;;;;;5000015;28;20053;-88
2022/01/16 10:22:53;;;;;;;41.65;20.27;;;5.80;99.90;;;;;;4982181;28;20133;-86
2022/01/16 10:25:39;;;;;;;35.20;19.20;;;5.80;99.90;;;;;;5005382;28;20096;-86
2022/01/16 10:28:13;;;;;;;38.40;18.65;;;5.80;99.90;;;;;;4990222;28;20060;-84
2022/01/16 10:30:45;;;;;;;35.95;18.38;;;5.80;99.90;;;;;;5001522;28;20053;-82
2022/01/16 10:33:13;;;;;;;33.33;18.42;;;5.90;99.90;;;;;;5019937;28;20070;-87
2022/01/16 10:35:40;;;;;;;36.35;18.90;;;7.60;99.90;;;;;;5005028;28;20049;-86
2022/01/16 10:38:11;;;;;;;33.50;17.65;;;5.90;99.90;;;;;;4999836;28;20046;-87
2022/01/16 10:40:39;;;;;;;34.38;17.20;;;5.90;99.90;;;;;;5003650;28;20038;-83
2022/01/16 10:43:15;;;;;;;33.58;17.77;;;5.90;99.90;;;;;;5014027;28;20054;-85
2022/01/16 10:45:43;;;;;;;28.67;18.30;;;5.80;99.90;;;;;;4999804;28;20046;-86
2022/01/16 10:48:10;;;;;;;33.88;17.95;;;5.90;99.90;;;;;;5006208;28;20104;-86
2022/01/16 10:50:38;;;;;;;35.85;19.90;;;6.00;99.90;;;;;;4991199;28;20128;-87
2022/01/16 10:53:12;;;;;;;37.78;22.35;;;5.90;99.90;;;;;;5002231;28;20052;-87
2022/01/16 10:55:47;;;;;;;42.05;21.60;;;6.00;99.90;;;;;;5000960;28;20046;-87
2022/01/16 10:58:22;;;;;;;30.30;17.42;;;6.00;99.90;;;;;;4992572;28;20523;-89
2022/01/16 11:00:54;;;;;;;28.02;14.60;;;6.00;99.90;;;;;;5004520;28;20046;-84
2022/01/16 11:03:22;;;;;;;32.25;17.13;;;6.00;99.90;;;;;;5004286;28;20073;-84
2022/01/16 11:05:49;;;;;;;30.48;14.07;;;6.00;99.90;;;;;;5004585;28;20177;-88
2022/01/16 11:08:17;;;;;;;30.30;16.23;;;7.10;99.90;;;;;;5008776;28;20045;-84
2022/01/16 11:10:49;;;;;;;39.05;14.77;;;6.00;99.90;;;;;;4998823;28;20038;-86
2022/01/16 11:13:17;;;;;;;25.00;12.68;;;6.10;99.90;;;;;;5006884;28;20173;-82
2022/01/16 11:15:45;;;;;;;25.83;12.45;;;6.10;99.90;;;;;;5003350;28;20132;-90
2022/01/16 11:18:12;;;;;;;25.13;13.80;;;7.30;99.90;;;;;;4984634;28;20076;-87
2022/01/16 11:20:39;;;;;;;24.58;12.45;;;6.10;99.90;;;;;;4998225;28;20081;-83
2022/01/16 11:25:55;;;;;;;23.92;12.95;;;6.20;99.90;;;;;;4998744;28;20054;-84
2022/01/16 11:28:23;;;;;;;22.45;11.00;;;6.20;99.90;;;;;;4989457;28;20069;-84
2022/01/16 11:30:53;;;;;;;21.52;10.82;;;6.20;99.90;;;;;;5001110;28;20085;-81
2022/01/16 11:33:21;;;;;;;28.25;11.00;;;6.20;99.90;;;;;;4993883;28;20042;-81
2022/01/16 11:35:59;;;;;;;23.17;10.30;;;6.20;99.90;;;;;;5013084;28;20136;-82
2022/01/16 11:38:31;;;;;;;20.10;9.93;;;6.30;99.90;;;;;;5002193;28;20049;-86
2022/01/16 11:41:10;;;;;;;26.38;10.35;;;6.20;99.90;;;;;;5006369;28;20053;-88
2022/01/16 11:43:37;;;;;;;26.98;9.63;;;6.30;99.90;;;;;;5007552;28;20557;-81
2022/01/16 11:46:12;;;;;;;17.73;7.95;;;6.30;99.90;;;;;;5004523;28;20137;-83
2022/01/16 11:48:51;;;;;;;17.83;8.88;;;6.30;99.90;;;;;;5009008;28;20042;-86
2022/01/16 11:51:35;;;;;;;23.42;9.07;;;6.20;99.90;;;;;;5005165;28;20519;-88
2022/01/16 11:54:19;;;;;;;28.65;8.80;;;6.30;99.90;;;;;;4991219;28;20050;-85
2022/01/16 11:56:45;;;;;;;16.08;7.60;;;6.30;99.90;;;;;;5002231;28;20042;-83
2022/01/16 11:59:14;;;;;;;16.05;7.75;;;6.30;99.90;;;;;;5007003;28;20045;-81
2022/01/16 12:01:44;;;;;;;25.58;8.85;;;6.40;99.90;;;;;;5010925;28;20521;-87
2022/01/16 12:04:31;;;;;;;21.80;7.03;;;6.40;99.90;;;;;;5007411;28;20041;-87
2022/01/16 12:07:20;;;;;;;20.90;7.47;;;6.40;99.90;;;;;;5020165;28;20042;-88
2022/01/16 12:09:59;;;;;;;25.90;6.68;;;6.40;99.90;;;;;;4974461;28;20057;-84
2022/01/16 12:12:27;;;;;;;20.35;6.88;;;8.30;99.90;;;;;;5004118;28;20042;-84
2022/01/16 12:14:59;;;;;;;21.25;7.57;;;6.50;99.90;;;;;;4988839;28;20543;-89
2022/01/16 12:20:22;;;;;;;23.50;7.60;;;6.50;99.90;;;;;;4999337;28;20104;-83
2022/01/16 12:23:07;;;;;;;25.83;8.20;;;6.40;99.90;;;;;;5003147;28;20042;-81
2022/01/16 12:25:33;;;;;;;15.82;6.55;;;6.50;99.90;;;;;;4994067;28;20375;-82
2022/01/16 12:28:05;;;;;;;26.35;7.45;;;6.50;99.90;;;;;;5005788;28;20048;-88
2022/01/16 12:30:48;;;;;;;18.48;6.45;;;6.50;99.90;;;;;;5002919;28;20050;-81
2022/01/16 12:33:14;;;;;;;21.00;7.78;;;6.60;99.90;;;;;;5019768;28;20139;-81
2022/01/16 12:35:48;;;;;;;21.48;7.53;;;6.60;99.90;;;;;;4995928;28;20485;-88
2022/01/16 12:38:32;;;;;;;15.05;7.57;;;7.70;99.90;;;;;;5003798;28;20077;-82
2022/01/16 12:40:58;;;;;;;22.98;6.68;;;6.60;99.90;;;;;;5000734;28;20120;-88
2022/01/16 12:45:54;;;;;;;22.02;6.97;;;6.60;99.90;;;;;;5022391;28;20132;-86
2022/01/16 12:48:20;;;;;;;17.88;6.72;;;6.60;99.90;;;;;;5002273;28;20045;-83
2022/01/16 12:50:45;;;;;;;23.73;7.80;;;6.50;99.90;;;;;;5004750;28;20101;-88
2022/01/16 12:53:11;;;;;;;17.02;6.85;;;6.60;99.90;;;;;;5012758;28;20042;-88
2022/01/16 12:55:37;;;;;;;18.10;5.95;;;6.60;99.90;;;;;;4999918;28;20494;-82
2022/01/16 12:58:20;;;;;;;20.83;6.80;;;6.60;99.90;;;;;;5017452;28;20065;-89
2022/01/16 13:01:05;;;;;;;21.88;7.65;;;6.60;99.90;;;;;;5004100;28;20044;-86
2022/01/16 13:03:36;;;;;;;12.73;6.90;;;6.60;99.90;;;;;;5010418;28;20041;-81
2022/01/16 13:06:26;;;;;;;17.02;6.80;;;6.60;99.90;;;;;;5005957;28;20042;-88
2022/01/16 13:08:59;;;;;;;15.80;7.22;;;6.60;99.90;;;;;;5004518;28;20049;-89
2022/01/16 13:11:46;;;;;;;21.95;7.35;;;6.60;99.90;;;;;;5002038;28;20064;-87
2022/01/16 13:14:14;;;;;;;19.98;7.00;;;6.60;99.90;;;;;;5003977;28;20042;-82
2022/01/16 13:16:42;;;;;;;13.27;7.32;;;6.60;99.90;;;;;;5002540;28;20042;-81
2022/01/16 13:19:14;;;;;;;17.10;7.43;;;6.60;99.90;;;;;;4994386;28;20099;-88
2022/01/16 13:21:57;;;;;;;21.48;7.55;;;6.60;99.90;;;;;;5002511;28;20046;-85
2022/01/16 13:24:28;;;;;;;14.40;7.70;;;8.00;99.90;;;;;;5009165;28;20046;-82
2022/01/16 13:26:55;;;;;;;21.48;8.05;;;6.60;99.90;;;;;;5005498;28;20038;-82
2022/01/16 13:29:21;;;;;;;19.10;7.40;;;6.60;99.90;;;;;;5007423;28;20163;-85
2022/01/16 13:31:48;;;;;;;14.57;7.28;;;6.60;99.90;;;;;;5023443;28;20091;-85
2022/01/16 13:34:19;;;;;;;17.20;7.85;;;6.60;99.90;;;;;;5005710;28;20038;-79
2022/01/16 13:36:53;;;;;;;20.15;7.95;;;6.50;99.90;;;;;;4314604;28;10000748;-83
2022/01/16 13:39:47;;;;;;;27.02;10.30;;;6.50;99.90;;;;;;5007308;28;20069;-82